Etape 7 Saint Pierre – Fort-de-France.

Tour des Yoles 2017, Etape 7, Saint Pierre – Fort-de-France


Départ 10h00 plage du bourg de Saint Pierre.

Bouée n° 1, située à Bellefontaine contourner et laisser à tribord.
Bouée n° 2, située à Schoelcher contourner et laisser à tribord.
Bouée n° 3, située au sud ouest de la tour Lumina, contourner et laisser à tribord.
Arrivée devant la plage de la Française.

La yole GFA/Cottrell remporte la 7ème étape à Fort de France.

La yole GFA Cottrell

{source}
<script async src=”//pagead2.googlesyndication.com/pagead/js/adsbygoogle.js”></script>
<script>
 (adsbygoogle = window.adsbygoogle || []).push({
google_ad_client: “ca-pub-4108554128840646”,
enable_page_level_ads: true
 });
</script>
{/source}

Classement de l’étape

PositionYole rondeTempsPénalitéHandicapTotalEcart
1Cottrell – GFA Caraibes2:30:28  2:30:28 
2UFR – Chanflor2:32:15  2:32:150:01:47
3Rosette – Orange2:39:04  2:39:040:08:36
4Zapetti – L’Appaloosa2:40:33  2:40:330:10:05
5C.T.D.M – E.D.F2:44:24  2:44:240:13:56
6Digicel2:45:39  2:45:390:15:11
7Brasserie Lorraine2:47:44  2:47:440:17:16
8SMEM2:51:20  2:51:200:20:52
9Royal Fruits de Martinique2:53:10  2:53:100:22:42
10Alu Destock – Eden Phone3:04:39  3:04:390:34:11
11Mutuelle Maregaillard3:10:25  3:10:250:39:57
12Mr Bricolage – SMART3:12:23  3:12:230:41:55
13Express – Ay Douvan3:25:45  3:25:450:55:17
14Diet Discount – Sikaru3:44:30  3:44:301:14:02
15SME3:47:250:20:00 4:07:251:36:57
16Village de la Pointe4:25:020:10:000:10:004:45:022:14:34

Classement général

PositionYole rondeTemps TotalEcart
1Rosette – Orange23:20:42 
2UFR – Chanflor24:09:510:49:09
3Zapetti – Appaloosa24:29:181:08:36
4Digicel24:40:191:19:37
5Brasserie Lorraine24:56:321:35:50
6Alu Destock – Eden Phone25:56:062:35:24
7Cottrell – GFA26:21:323:00:50
8SMEM26:34:283:13:46
9Mr Bricolage – SMART26:57:423:37:00
10Royal Fruits de Martinique27:00:173:39:35
11Express – Ay Douvan27:04:313:43:49
12Mutuelle Maregaillard27:09:423:49:00
13Diet Discount – Sikaru29:01:395:40:57
14C.T.D.M – E.D.F31:03:527:43:10
15Village de la pointe32:25:129:04:30
16SME35:48:5812:28:16
Etape7 Saint-Pierre Fort de France